Time;durP1;ratioP1;P1;durP2;ratioP2;P2;SDS_P1;SDS_P2;PMS_P1;PMS_P2;Temp;Humidity;BMP_temperature;BMP_pressure;BME280_temperature;BME280_humidity;BME280_pressure;Samples;Min_cycle;Max_cycle;Signal;HPM_P1;HPM_P2
2021/11/16 00:00:37;;;;;;;31.85;18.70;;;8.10;86.50;;;;;;4956405;28;20273;-76
2021/11/16 00:03:06;;;;;;;33.08;18.85;;;8.10;86.70;;;;;;4957950;28;20300;-76
2021/11/16 00:05:33;;;;;;;31.45;20.23;;;8.10;86.80;;;;;;4964269;28;20214;-78
2021/11/16 00:08:00;;;;;;;27.08;18.08;;;8.00;88.00;;;;;;4972311;28;20232;-75
2021/11/16 00:10:27;;;;;;;30.15;18.35;;;8.00;88.10;;;;;;4974054;28;20214;-74
2021/11/16 00:12:54;;;;;;;34.28;19.35;;;8.10;88.20;;;;;;4974262;28;20221;-76
2021/11/16 00:15:22;;;;;;;31.83;18.30;;;8.10;88.20;;;;;;4973064;28;20284;-76
2021/11/16 00:17:49;;;;;;;29.45;19.17;;;8.00;88.10;;;;;;4971648;28;20244;-75
2021/11/16 00:20:18;;;;;;;27.30;18.48;;;8.00;88.10;;;;;;4959186;28;20212;-76
2021/11/16 00:22:46;;;;;;;30.88;18.08;;;8.00;88.10;;;;;;4954175;28;20210;-76
2021/11/16 00:25:22;;;;;;;27.80;17.88;;;8.10;88.20;;;;;;4955040;28;20233;-76
2021/11/16 00:27:50;;;;;;;31.17;17.77;;;8.20;88.30;;;;;;4954199;28;20225;-75
2021/11/16 00:30:18;;;;;;;29.80;19.80;;;8.20;88.30;;;;;;4954222;28;20610;-75
2021/11/16 00:32:45;;;;;;;31.38;19.90;;;8.20;87.10;;;;;;4954189;28;20216;-75
2021/11/16 00:35:12;;;;;;;32.67;19.85;;;8.10;87.20;;;;;;4953819;28;20210;-75
2021/11/16 00:37:41;;;;;;;31.05;19.52;;;8.10;88.90;;;;;;4953852;28;20225;-75
2021/11/16 00:40:11;;;;;;;28.58;18.17;;;8.10;88.20;;;;;;4953311;28;20210;-76
2021/11/16 00:42:39;;;;;;;31.10;19.73;;;8.10;88.20;;;;;;4957502;28;20217;-76
2021/11/16 00:45:07;;;;;;;27.52;18.90;;;8.20;88.30;;;;;;4958124;28;20217;-76
2021/11/16 00:47:34;;;;;;;32.28;18.67;;;8.20;88.30;;;;;;4958260;28;20650;-77
2021/11/16 00:50:01;;;;;;;27.35;18.58;;;8.20;88.20;;;;;;4958224;28;20213;-77
2021/11/16 00:52:28;;;;;;;25.83;17.20;;;8.20;88.30;;;;;;4957977;28;20588;-76
2021/11/16 00:54:56;;;;;;;28.92;19.27;;;8.30;87.90;;;;;;4958222;28;20205;-77
2021/11/16 00:57:23;;;;;;;30.92;16.65;;;8.30;86.90;;;;;;4958831;28;20236;-77
2021/11/16 00:59:50;;;;;;;28.70;17.52;;;8.30;87.60;;;;;;4957431;28;20214;-77
2021/11/16 01:02:17;;;;;;;29.90;18.50;;;8.30;86.80;;;;;;4957253;28;20214;-80
2021/11/16 01:04:48;;;;;;;29.85;18.30;;;8.30;86.20;;;;;;4957891;28;20213;-75
2021/11/16 01:07:16;;;;;;;29.42;18.10;;;8.30;86.70;;;;;;4958378;28;20296;-77
2021/11/16 01:09:43;;;;;;;31.05;18.83;;;8.30;85.90;;;;;;4967946;28;20535;-78
2021/11/16 01:12:12;;;;;;;31.13;18.88;;;8.30;86.00;;;;;;4957451;28;20693;-76
2021/11/16 01:14:40;;;;;;;25.45;16.52;;;8.30;86.50;;;;;;4965225;28;20684;-76
2021/11/16 01:17:08;;;;;;;25.10;17.17;;;8.40;85.50;;;;;;4960483;28;20785;-76
2021/11/16 01:19:35;;;;;;;30.90;18.48;;;8.40;85.70;;;;;;4957365;28;20309;-77
2021/11/16 01:22:02;;;;;;;25.02;16.15;;;8.40;85.50;;;;;;4964461;28;20210;-76
2021/11/16 01:24:29;;;;;;;29.10;17.77;;;8.50;84.70;;;;;;4960591;28;20210;-76
2021/11/16 01:26:56;;;;;;;27.10;18.40;;;8.50;84.70;;;;;;4959372;28;20252;-75
2021/11/16 01:29:25;;;;;;;30.02;19.10;;;8.50;84.40;;;;;;4958446;28;20561;-75
2021/11/16 01:31:55;;;;;;;28.08;18.20;;;8.30;84.70;;;;;;4958347;28;20210;-76
2021/11/16 01:34:27;;;;;;;28.60;19.13;;;8.20;86.50;;;;;;4957635;28;20304;-76
2021/11/16 01:36:54;;;;;;;24.00;17.52;;;8.30;87.80;;;;;;4957344;28;20226;-76
2021/11/16 01:39:21;;;;;;;27.40;17.80;;;8.30;87.20;;;;;;4957496;28;20285;-76
2021/11/16 01:41:48;;;;;;;31.35;18.17;;;8.30;86.80;;;;;;4956771;28;20200;-76
2021/11/16 01:44:14;;;;;;;31.13;18.42;;;8.40;87.40;;;;;;4956455;28;20693;-76
2021/11/16 01:46:43;;;;;;;29.23;17.83;;;8.40;87.20;;;;;;4956638;28;20209;-75
2021/11/16 01:49:10;;;;;;;31.30;17.92;;;8.50;86.30;;;;;;4956136;28;20238;-76
2021/11/16 01:51:38;;;;;;;28.02;17.52;;;8.50;86.20;;;;;;4957159;28;20250;-76
2021/11/16 01:54:06;;;;;;;28.75;18.40;;;8.50;84.60;;;;;;4954815;28;20678;-75
2021/11/16 01:56:35;;;;;;;28.80;18.05;;;8.50;84.40;;;;;;4955976;28;20244;-75
2021/11/16 01:59:02;;;;;;;37.00;19.02;;;8.40;84.30;;;;;;4956240;28;20329;-74
2021/11/16 02:01:30;;;;;;;32.70;17.52;;;8.30;84.30;;;;;;4956160;28;20206;-74
2021/11/16 02:03:59;;;;;;;29.60;18.30;;;8.30;84.30;;;;;;4955947;28;20659;-74
2021/11/16 02:06:28;;;;;;;27.75;15.93;;;8.30;84.20;;;;;;4956188;28;20225;-74
2021/11/16 02:08:57;;;;;;;27.77;18.40;;;8.30;82.70;;;;;;4957083;28;20233;-74
2021/11/16 02:11:25;;;;;;;28.63;16.80;;;8.30;81.90;;;;;;4956158;28;20224;-74
2021/11/16 02:13:53;;;;;;;30.00;16.95;;;8.30;81.70;;;;;;4956155;28;20225;-74
2021/11/16 02:16:21;;;;;;;28.83;18.13;;;8.20;80.90;;;;;;4955890;28;20301;-75
2021/11/16 02:18:48;;;;;;;25.35;15.57;;;8.20;80.20;;;;;;4966860;28;20230;-78
2021/11/16 02:21:17;;;;;;;27.45;16.35;;;8.20;79.50;;;;;;4977423;28;20198;-79
2021/11/16 02:23:44;;;;;;;26.15;15.57;;;8.20;78.40;;;;;;4975545;28;20229;-77
2021/11/16 02:26:13;;;;;;;29.42;16.17;;;8.20;78.00;;;;;;4978443;28;20202;-78
2021/11/16 02:28:43;;;;;;;31.55;16.27;;;8.30;77.30;;;;;;4969360;28;20261;-75
2021/11/16 02:31:10;;;;;;;25.40;15.75;;;8.20;77.00;;;;;;4957118;28;20262;-75
2021/11/16 02:33:37;;;;;;;25.83;15.32;;;8.20;76.90;;;;;;4960847;28;20306;-75
2021/11/16 02:36:04;;;;;;;30.27;16.85;;;8.20;76.50;;;;;;4956306;28;20217;-76
2021/11/16 02:38:32;;;;;;;25.58;16.20;;;8.20;76.00;;;;;;4955317;28;20326;-76
2021/11/16 02:41:01;;;;;;;24.80;14.80;;;8.20;76.40;;;;;;4955173;28;20605;-76
2021/11/16 02:43:29;;;;;;;31.55;16.17;;;8.20;76.30;;;;;;4955021;28;20229;-76
2021/11/16 02:45:56;;;;;;;29.88;15.07;;;8.10;76.80;;;;;;4955183;28;20296;-76
2021/11/16 02:48:23;;;;;;;29.92;16.45;;;8.20;76.90;;;;;;4979039;23;20234;-79
2021/11/16 02:50:53;;;;;;;28.73;16.35;;;8.20;75.70;;;;;;4974660;29;20214;-80
2021/11/16 02:53:24;;;;;;;27.67;16.30;;;8.20;75.70;;;;;;4972367;28;20212;-80
2021/11/16 02:55:53;;;;;;;31.73;17.42;;;8.10;76.00;;;;;;4965587;29;20681;-80
2021/11/16 02:58:21;;;;;;;29.25;16.17;;;8.10;77.20;;;;;;4975009;28;20233;-80
2021/11/16 03:00:51;;;;;;;28.77;16.17;;;8.10;76.60;;;;;;4973916;28;20214;-81
2021/11/16 03:03:18;;;;;;;27.63;15.77;;;8.00;75.50;;;;;;4975648;28;20225;-80
2021/11/16 03:05:45;;;;;;;31.83;15.90;;;8.00;75.70;;;;;;4975108;28;20294;-80
2021/11/16 03:08:16;;;;;;;30.38;15.68;;;8.00;76.60;;;;;;4965614;28;20297;-79
2021/11/16 03:10:44;;;;;;;30.33;16.42;;;8.10;76.70;;;;;;4969788;28;20218;-80
2021/11/16 03:13:14;;;;;;;26.42;16.00;;;8.10;76.00;;;;;;4965625;28;20214;-79
2021/11/16 03:15:41;;;;;;;29.33;16.42;;;8.20;75.70;;;;;;4970333;28;20197;-80
2021/11/16 03:18:09;;;;;;;27.80;15.70;;;8.20;75.70;;;;;;4974365;28;20237;-79
2021/11/16 03:20:36;;;;;;;26.33;15.43;;;8.20;75.70;;;;;;4978693;28;20225;-80
2021/11/16 03:23:10;;;;;;;31.88;16.08;;;8.20;75.70;;;;;;4976383;28;20285;-79
2021/11/16 03:25:39;;;;;;;25.70;15.82;;;8.20;75.70;;;;;;4962426;28;20601;-80
2021/11/16 03:28:09;;;;;;;27.45;16.52;;;8.20;75.70;;;;;;4963354;28;20222;-79
2021/11/16 03:30:37;;;;;;;27.48;17.15;;;8.20;75.70;;;;;;4961093;28;20209;-78
2021/11/16 03:33:05;;;;;;;28.77;16.60;;;8.20;75.70;;;;;;4960905;28;20224;-79
2021/11/16 03:35:35;;;;;;;32.78;17.40;;;8.20;75.70;;;;;;4960228;28;20220;-79
2021/11/16 03:38:03;;;;;;;28.40;16.05;;;8.00;75.50;;;;;;4959387;28;20233;-79
2021/11/16 03:40:33;;;;;;;23.55;15.45;;;8.00;75.60;;;;;;4959296;28;20210;-80
2021/11/16 03:42:59;;;;;;;28.67;16.88;;;8.00;75.50;;;;;;4960948;28;20292;-79
2021/11/16 03:45:28;;;;;;;28.63;15.75;;;8.00;75.50;;;;;;4961427;28;20221;-79
2021/11/16 03:47:59;;;;;;;30.42;17.50;;;8.10;75.60;;;;;;4961145;28;20229;-79
2021/11/16 03:50:28;;;;;;;33.03;17.90;;;8.10;75.60;;;;;;4965044;28;20220;-79
2021/11/16 03:52:57;;;;;;;33.10;17.70;;;8.10;75.60;;;;;;4967995;28;20210;-79
2021/11/16 03:55:26;;;;;;;26.63;17.08;;;8.00;75.70;;;;;;4966064;28;20237;-79
2021/11/16 03:57:55;;;;;;;33.22;17.02;;;8.10;76.50;;;;;;4960527;28;20222;-78
2021/11/16 04:00:24;;;;;;;31.02;18.02;;;8.10;76.00;;;;;;4962061;28;20213;-78
2021/11/16 04:02:51;;;;;;;29.60;16.38;;;8.10;76.40;;;;;;4965900;28;20234;-80
2021/11/16 04:05:19;;;;;;;31.48;16.05;;;8.10;76.70;;;;;;4964459;28;20220;-78
2021/11/16 04:07:47;;;;;;;27.88;15.57;;;8.10;76.30;;;;;;4963608;28;20220;-78
2021/11/16 04:10:14;;;;;;;27.73;16.88;;;8.10;77.00;;;;;;4964122;28;20319;-79
2021/11/16 04:12:43;;;;;;;28.60;16.48;;;8.10;76.90;;;;;;4959335;28;20300;-79
2021/11/16 04:15:11;;;;;;;31.48;17.60;;;8.10;76.50;;;;;;4959687;28;20218;-79
2021/11/16 04:17:40;;;;;;;27.95;16.35;;;8.20;76.40;;;;;;4959618;28;20232;-79
2021/11/16 04:20:12;;;;;;;33.10;17.63;;;8.20;75.70;;;;;;4962314;28;20238;-80
2021/11/16 04:22:40;;;;;;;29.63;17.15;;;8.20;75.70;;;;;;4963050;28;20202;-79
2021/11/16 04:25:09;;;;;;;33.60;17.63;;;8.20;76.80;;;;;;4959233;28;20690;-81
2021/11/16 04:27:35;;;;;;;31.73;16.63;;;8.20;77.20;;;;;;4959448;28;20318;-80
2021/11/16 04:30:03;;;;;;;29.38;16.33;;;8.20;77.50;;;;;;4960259;28;20217;-79
2021/11/16 04:32:30;;;;;;;29.83;17.77;;;8.20;77.80;;;;;;4959630;28;20243;-79
2021/11/16 04:34:56;;;;;;;31.85;17.08;;;8.10;77.60;;;;;;4960263;28;20209;-80
2021/11/16 04:37:23;;;;;;;30.65;18.10;;;8.10;78.10;;;;;;4960905;28;20233;-79
2021/11/16 04:39:52;;;;;;;31.98;16.38;;;8.10;77.80;;;;;;4960837;28;20237;-80
2021/11/16 04:42:20;;;;;;;27.52;16.15;;;8.10;77.60;;;;;;4953551;28;20218;-79
2021/11/16 04:44:47;;;;;;;31.00;18.02;;;8.10;78.20;;;;;;4954102;29;20214;-79
2021/11/16 04:47:20;;;;;;;31.45;17.92;;;8.10;79.10;;;;;;4955632;29;20578;-80
2021/11/16 04:49:51;;;;;;;28.42;16.80;;;8.10;77.80;;;;;;4939669;29;20630;-80
2021/11/16 04:52:24;;;;;;;30.08;17.98;;;8.10;78.10;;;;;;4939019;29;20214;-78
2021/11/16 05:03:13;;;;;;;36.15;17.70;;;8.00;79.20;;;;;;4947272;28;20206;-79
2021/11/16 05:05:40;;;;;;;31.55;17.17;;;8.00;80.30;;;;;;4965173;28;20213;-79
2021/11/16 05:08:07;;;;;;;32.97;18.95;;;8.00;81.60;;;;;;4963402;28;20316;-79
2021/11/16 05:10:35;;;;;;;32.03;18.77;;;8.00;81.80;;;;;;4961157;28;20238;-78
2021/11/16 05:13:02;;;;;;;34.42;18.25;;;8.00;82.30;;;;;;4958143;28;20799;-78
2021/11/16 05:15:29;;;;;;;37.83;19.65;;;8.00;81.80;;;;;;4957268;28;20276;-79
2021/11/16 05:17:56;;;;;;;31.02;18.55;;;8.00;82.30;;;;;;4958204;28;20265;-80
2021/11/16 05:20:23;;;;;;;29.30;16.95;;;8.10;81.90;;;;;;4958665;28;20220;-78
2021/11/16 05:22:52;;;;;;;29.67;18.25;;;8.10;81.70;;;;;;4950989;28;20297;-78
2021/11/16 05:25:20;;;;;;;30.65;17.30;;;8.00;81.40;;;;;;4939036;29;20210;-79
2021/11/16 05:27:51;;;;;;;31.38;17.02;;;8.00;81.20;;;;;;4943158;29;20207;-80
2021/11/16 05:30:18;;;;;;;28.70;15.60;;;8.00;80.70;;;;;;4949096;29;20210;-79
2021/11/16 05:32:45;;;;;;;33.17;17.52;;;8.00;80.90;;;;;;4955169;29;20297;-81
2021/11/16 05:35:13;;;;;;;32.92;17.90;;;8.00;80.40;;;;;;4957859;29;20552;-80
2021/11/16 05:37:41;;;;;;;31.58;18.40;;;8.00;80.10;;;;;;4953953;29;20220;-81
2021/11/16 05:40:09;;;;;;;31.83;17.90;;;8.00;80.80;;;;;;4955727;29;20206;-80
2021/11/16 05:42:36;;;;;;;36.88;18.73;;;7.90;80.30;;;;;;4957573;29;20701;-80
2021/11/16 05:45:05;;;;;;;29.13;16.55;;;8.00;80.80;;;;;;4949264;29;20194;-80
2021/11/16 05:47:32;;;;;;;32.78;16.95;;;8.00;80.00;;;;;;4961100;29;20194;-80
2021/11/16 05:49:59;;;;;;;30.23;18.08;;;8.00;79.90;;;;;;4959133;29;20340;-81
2021/11/16 05:52:26;;;;;;;36.30;19.77;;;8.00;80.70;;;;;;4945303;29;20606;-79
2021/11/16 05:54:54;;;;;;;38.13;20.00;;;7.90;81.10;;;;;;4944182;29;20301;-80
2021/11/16 05:57:21;;;;;;;34.17;19.90;;;7.90;82.10;;;;;;4945017;29;20233;-80
2021/11/16 05:59:48;;;;;;;36.55;19.98;;;7.70;83.90;;;;;;4943286;29;20234;-80
2021/11/16 06:02:17;;;;;;;36.20;19.42;;;7.70;86.20;;;;;;4944900;29;20211;-80
2021/11/16 06:04:45;;;;;;;32.03;17.80;;;7.70;87.80;;;;;;4950299;29;20261;-80
2021/11/16 06:07:13;;;;;;;35.47;19.92;;;7.60;87.80;;;;;;4947438;29;20215;-79
2021/11/16 06:09:42;;;;;;;39.13;20.48;;;7.60;89.30;;;;;;4950747;29;20287;-80
2021/11/16 06:12:10;;;;;;;34.58;20.13;;;7.70;89.50;;;;;;4961941;29;20214;-81
2021/11/16 06:14:36;;;;;;;34.47;20.42;;;7.70;89.30;;;;;;4958307;29;20270;-80
2021/11/16 06:17:04;;;;;;;33.92;18.67;;;7.80;88.00;;;;;;4952427;29;20207;-80
2021/11/16 06:19:35;;;;;;;37.25;19.83;;;7.70;88.80;;;;;;4949122;29;20237;-79
2021/11/16 06:22:03;;;;;;;34.05;18.50;;;7.70;89.40;;;;;;4956037;29;20202;-80
2021/11/16 06:24:29;;;;;;;38.35;20.05;;;7.70;89.50;;;;;;4958987;29;20214;-81
2021/11/16 06:26:57;;;;;;;31.38;18.80;;;7.70;89.30;;;;;;4958043;29;20218;-79
2021/11/16 06:29:23;;;;;;;36.45;18.95;;;7.70;89.00;;;;;;4956220;29;20302;-79
2021/11/16 06:31:50;;;;;;;37.67;18.30;;;7.70;89.80;;;;;;4960932;29;20219;-79
2021/11/16 06:34:17;;;;;;;36.22;19.67;;;7.60;90.40;;;;;;4945184;29;20238;-79
2021/11/16 06:36:47;;;;;;;41.85;20.25;;;7.60;91.00;;;;;;4948151;29;20206;-79
2021/11/16 06:39:17;;;;;;;36.30;20.02;;;7.60;90.80;;;;;;4960084;29;20233;-79
2021/11/16 06:41:47;;;;;;;35.45;19.48;;;7.50;91.50;;;;;;4958468;29;20211;-80
2021/11/16 06:44:16;;;;;;;35.72;19.23;;;7.40;92.00;;;;;;4944542;29;20209;-79
2021/11/16 06:46:44;;;;;;;35.35;20.70;;;7.40;93.10;;;;;;4944075;29;20215;-80
2021/11/16 06:49:12;;;;;;;35.28;19.90;;;7.40;93.90;;;;;;4944984;29;20234;-79
2021/11/16 06:51:42;;;;;;;37.97;19.98;;;7.40;94.10;;;;;;4944777;29;20214;-79
2021/11/16 06:54:13;;;;;;;39.88;20.67;;;7.50;94.30;;;;;;4944122;29;20834;-80
2021/11/16 06:56:41;;;;;;;37.05;19.80;;;7.60;94.40;;;;;;4944645;29;20198;-80
2021/11/16 06:59:09;;;;;;;38.40;19.73;;;7.50;94.20;;;;;;4943618;29;20250;-79
2021/11/16 07:01:37;;;;;;;40.92;20.95;;;7.60;93.90;;;;;;4942937;29;20737;-79
2021/11/16 07:04:09;;;;;;;38.55;21.60;;;7.50;93.70;;;;;;4942031;29;20229;-79
2021/11/16 07:06:37;;;;;;;39.47;20.35;;;7.50;94.20;;;;;;4942781;29;20215;-79
2021/11/16 07:09:05;;;;;;;41.17;20.70;;;7.40;94.30;;;;;;4941156;29;20222;-79
2021/11/16 07:11:42;;;;;;;42.03;22.05;;;7.30;95.70;;;;;;4940711;29;20625;-79
2021/11/16 07:14:10;;;;;;;41.33;21.40;;;7.30;96.20;;;;;;4942237;29;20214;-81
2021/11/16 07:16:39;;;;;;;43.92;21.73;;;7.40;96.50;;;;;;4941740;29;20214;-79
2021/11/16 07:19:09;;;;;;;37.70;21.58;;;7.40;96.10;;;;;;4940903;29;20238;-79
2021/11/16 07:21:45;;;;;;;40.42;20.25;;;7.40;96.10;;;;;;4941808;29;20557;-79
2021/11/16 07:24:15;;;;;;;40.92;20.75;;;7.40;95.90;;;;;;4943646;29;20190;-80
2021/11/16 07:26:44;;;;;;;41.47;20.98;;;7.40;95.30;;;;;;4944037;29;20233;-79
2021/11/16 07:29:14;;;;;;;44.20;21.45;;;7.40;95.20;;;;;;4945032;29;20326;-80
2021/11/16 07:31:42;;;;;;;38.88;20.92;;;7.40;95.20;;;;;;4945831;29;20745;-80
2021/11/16 07:34:16;;;;;;;37.78;20.58;;;7.50;95.40;;;;;;4951653;29;20272;-80
2021/11/16 07:36:54;;;;;;;38.05;20.60;;;7.50;95.50;;;;;;4955023;29;20214;-79
2021/11/16 07:39:22;;;;;;;36.58;18.83;;;7.50;95.20;;;;;;4953603;29;20230;-80
2021/11/16 07:41:50;;;;;;;35.50;20.40;;;7.50;94.70;;;;;;4946653;29;20230;-80
2021/11/16 07:44:18;;;;;;;38.50;20.30;;;7.60;94.60;;;;;;4957786;29;20221;-84
2021/11/16 07:46:54;;;;;;;44.22;21.73;;;7.50;94.40;;;;;;4958354;29;20198;-79
2021/11/16 07:49:21;;;;;;;37.47;20.10;;;7.60;94.40;;;;;;4958969;29;20238;-80
2021/11/16 07:51:49;;;;;;;41.08;20.10;;;7.60;94.40;;;;;;4957339;29;20218;-78
2021/11/16 07:54:22;;;;;;;35.67;18.77;;;7.60;93.90;;;;;;4947918;29;20245;-79
2021/11/16 07:56:50;;;;;;;36.22;18.92;;;7.50;93.40;;;;;;4944535;29;20222;-78
2021/11/16 07:59:19;;;;;;;43.30;20.60;;;7.50;93.20;;;;;;4943884;29;20234;-80
2021/11/16 08:01:56;;;;;;;36.80;20.92;;;7.60;93.50;;;;;;4943048;29;20267;-79
2021/11/16 08:04:26;;;;;;;41.00;22.00;;;7.60;93.80;;;;;;4943556;29;20195;-79
2021/11/16 08:07:02;;;;;;;48.33;22.10;;;7.60;94.00;;;;;;4944807;29;20214;-79
2021/11/16 08:09:40;;;;;;;34.30;18.40;;;7.60;93.90;;;;;;4942902;29;20226;-79
2021/11/16 08:12:23;;;;;;;42.08;21.48;;;7.60;93.80;;;;;;4946563;29;20201;-79
2021/11/16 08:14:58;;;;;;;38.00;18.15;;;7.60;94.10;;;;;;4945897;29;20310;-79
2021/11/16 08:17:26;;;;;;;38.03;19.10;;;7.60;94.00;;;;;;4947562;29;20221;-81
2021/11/16 08:19:57;;;;;;;45.17;23.23;;;7.70;93.90;;;;;;4946845;29;20234;-79
2021/11/16 08:22:24;;;;;;;40.35;22.30;;;7.70;93.70;;;;;;4954956;29;20210;-79
2021/11/16 08:24:51;;;;;;;38.50;21.42;;;7.60;94.40;;;;;;4958556;29;20233;-80
2021/11/16 08:27:22;;;;;;;42.17;21.30;;;7.70;94.70;;;;;;4957538;29;20205;-79
2021/11/16 08:29:52;;;;;;;40.63;21.48;;;7.70;94.90;;;;;;4956806;29;20257;-79
2021/11/16 08:32:22;;;;;;;38.97;22.10;;;7.70;94.60;;;;;;4951614;29;20238;-80
2021/11/16 08:34:52;;;;;;;45.45;22.08;;;7.70;94.80;;;;;;4947960;29;20641;-79
2021/11/16 08:37:20;;;;;;;40.95;20.92;;;7.70;95.10;;;;;;4956746;29;20214;-81
2021/11/16 08:39:49;;;;;;;44.00;21.55;;;7.70;94.70;;;;;;4958162;29;20242;-80
2021/11/16 08:42:21;;;;;;;42.58;21.45;;;7.70;94.70;;;;;;4958259;29;20190;-79
2021/11/16 08:44:53;;;;;;;42.25;22.63;;;7.70;95.10;;;;;;4957935;29;20201;-79
2021/11/16 08:47:21;;;;;;;39.67;21.63;;;7.70;94.60;;;;;;4958626;29;20199;-79
2021/11/16 08:49:49;;;;;;;38.67;21.23;;;7.60;95.90;;;;;;4970860;23;20230;-77
2021/11/16 08:52:20;;;;;;;43.90;21.17;;;7.60;96.20;;;;;;4959576;29;20234;-78
2021/11/16 08:54:56;;;;;;;40.40;20.05;;;7.60;96.10;;;;;;4958703;29;20210;-80
2021/11/16 08:57:27;;;;;;;41.72;21.35;;;7.70;96.00;;;;;;4958111;29;20221;-80
2021/11/16 08:59:55;;;;;;;41.75;20.40;;;7.70;96.20;;;;;;4958600;29;20230;-77
2021/11/16 09:02:25;;;;;;;39.65;21.05;;;7.70;95.90;;;;;;4957347;29;20214;-79
2021/11/16 09:04:52;;;;;;;39.22;21.08;;;7.70;95.50;;;;;;4962557;29;20242;-78
2021/11/16 09:07:28;;;;;;;42.45;22.00;;;7.70;96.20;;;;;;4962868;29;20252;-77
2021/11/16 09:09:58;;;;;;;49.53;22.80;;;7.80;95.90;;;;;;4962448;29;20226;-78
2021/11/16 09:12:36;;;;;;;42.70;21.95;;;7.70;95.00;;;;;;4962903;29;20203;-76
2021/11/16 09:15:04;;;;;;;37.80;20.23;;;7.80;95.60;;;;;;4960633;29;20214;-78
2021/11/16 09:17:31;;;;;;;35.47;19.02;;;7.90;95.20;;;;;;4959738;29;20225;-79
2021/11/16 09:20:21;;;;;;;43.00;20.67;;;7.90;94.80;;;;;;4956849;29;20737;-80
2021/11/16 09:22:48;;;;;;;34.05;19.27;;;7.90;94.50;;;;;;4959009;29;20248;-78
2021/11/16 09:25:36;;;;;;;32.88;19.55;;;7.90;93.90;;;;;;4959700;29;20238;-80
2021/11/16 09:28:25;;;;;;;72.07;34.00;;;7.90;93.80;;;;;;4956383;29;20215;-77
2021/11/16 09:30:52;;;;;;;40.72;21.02;;;7.90;93.70;;;;;;4960324;29;20270;-79
2021/11/16 09:33:21;;;;;;;38.38;20.35;;;7.90;94.10;;;;;;4960396;29;20214;-78
2021/11/16 09:35:53;;;;;;;37.60;18.98;;;7.80;93.90;;;;;;4960915;29;20269;-78
2021/11/16 09:38:46;;;;;;;37.78;19.80;;;7.80;94.50;;;;;;4960199;29;20258;-79
2021/11/16 09:41:20;;;;;;;40.60;20.58;;;7.80;94.50;;;;;;4960326;29;20234;-78
2021/11/16 09:43:56;;;;;;;40.13;20.23;;;7.70;94.70;;;;;;4957923;29;20270;-80
2021/11/16 09:46:23;;;;;;;37.60;20.10;;;7.70;94.90;;;;;;4958963;29;20218;-82
2021/11/16 09:48:57;;;;;;;39.60;20.73;;;7.70;95.90;;;;;;4957422;29;20238;-81
2021/11/16 09:51:24;;;;;;;39.75;19.27;;;7.80;96.20;;;;;;4956495;29;20213;-78
2021/11/16 09:54:02;;;;;;;31.98;18.35;;;7.80;95.90;;;;;;4957467;29;20222;-80
2021/11/16 09:56:29;;;;;;;35.08;20.08;;;7.80;95.80;;;;;;4957075;29;20655;-80
2021/11/16 09:59:00;;;;;;;35.60;19.98;;;7.90;95.80;;;;;;4957211;29;20360;-80
2021/11/16 10:01:32;;;;;;;35.78;19.27;;;7.90;95.40;;;;;;4957156;29;20221;-79
2021/11/16 10:04:18;;;;;;;41.70;20.30;;;7.90;95.40;;;;;;4960725;29;20234;-77
2021/11/16 10:06:45;;;;;;;36.33;19.67;;;7.90;95.50;;;;;;4960606;29;20265;-81
2021/11/16 10:09:12;;;;;;;40.40;21.50;;;7.90;95.00;;;;;;4954882;29;20239;-81
2021/11/16 10:11:43;;;;;;;35.03;19.17;;;7.80;95.50;;;;;;4953574;29;20202;-79
2021/11/16 10:14:14;;;;;;;47.47;22.25;;;7.80;96.00;;;;;;4956484;29;20729;-81
2021/11/16 10:16:42;;;;;;;37.50;20.77;;;7.80;96.30;;;;;;4956612;29;20195;-82
2021/11/16 10:19:09;;;;;;;47.10;21.60;;;7.90;96.90;;;;;;4957687;29;20230;-81
2021/11/16 10:21:36;;;;;;;39.50;20.90;;;8.00;96.70;;;;;;4956593;29;20234;-79
2021/11/16 10:24:21;;;;;;;36.25;21.13;;;7.90;96.50;;;;;;4957568;29;20210;-80
2021/11/16 10:26:48;;;;;;;36.25;19.20;;;7.90;96.80;;;;;;4957419;29;20210;-81
2021/11/16 10:29:18;;;;;;;43.63;21.20;;;7.80;96.30;;;;;;4957264;29;20243;-79
2021/11/16 10:31:47;;;;;;;35.25;19.40;;;7.80;96.80;;;;;;4958245;29;20214;-78
2021/11/16 10:34:14;;;;;;;37.22;20.38;;;7.90;97.10;;;;;;4958108;29;20214;-79
2021/11/16 10:36:41;;;;;;;44.22;22.13;;;7.90;97.30;;;;;;4960149;29;20211;-80
2021/11/16 10:39:08;;;;;;;39.00;19.60;;;7.90;97.10;;;;;;4956291;29;20645;-79
2021/11/16 10:41:40;;;;;;;34.25;18.90;;;8.00;96.80;;;;;;4951137;29;20226;-80
2021/11/16 10:44:09;;;;;;;36.78;19.45;;;8.00;96.90;;;;;;4942961;29;20230;-80
2021/11/16 10:46:39;;;;;;;29.77;18.23;;;7.90;96.20;;;;;;4943635;29;20261;-80
2021/11/16 10:49:10;;;;;;;41.45;19.75;;;7.80;95.50;;;;;;4943674;29;20334;-79
2021/11/16 10:51:39;;;;;;;33.25;19.55;;;7.80;96.10;;;;;;4947401;29;20213;-79
2021/11/16 10:54:09;;;;;;;33.15;19.33;;;7.90;96.30;;;;;;4948890;29;20218;-81
2021/11/16 10:56:37;;;;;;;36.00;20.58;;;8.00;96.60;;;;;;4949597;29;20250;-80
2021/11/16 10:59:06;;;;;;;37.53;19.50;;;8.00;96.30;;;;;;4947031;29;20736;-81
2021/11/16 11:01:33;;;;;;;32.50;17.45;;;8.00;95.60;;;;;;4949707;29;20241;-79
2021/11/16 11:04:01;;;;;;;32.78;17.90;;;8.00;95.50;;;;;;4952312;29;20208;-79
2021/11/16 11:06:34;;;;;;;31.20;18.23;;;8.00;95.80;;;;;;4953873;29;20210;-80
2021/11/16 11:09:03;;;;;;;31.05;17.67;;;8.00;94.50;;;;;;4956378;29;20237;-79
2021/11/16 11:11:32;;;;;;;28.08;16.50;;;7.90;93.70;;;;;;4954509;29;20278;-80
2021/11/16 11:14:02;;;;;;;33.33;17.23;;;7.80;93.90;;;;;;4955370;29;20244;-79
2021/11/16 11:16:30;;;;;;;33.63;18.70;;;7.70;93.80;;;;;;4953143;29;20214;-79
2021/11/16 11:18:58;;;;;;;31.42;16.45;;;7.70;94.80;;;;;;4952632;29;20294;-81
2021/11/16 11:21:40;;;;;;;35.00;19.67;;;7.70;95.30;;;;;;4952690;29;20234;-80
2021/11/16 11:24:13;;;;;;;34.05;17.75;;;7.70;94.80;;;;;;4952495;29;20215;-79
2021/11/16 11:26:45;;;;;;;29.75;17.50;;;7.80;94.60;;;;;;4950559;29;20293;-81
2021/11/16 11:29:31;;;;;;;27.30;16.38;;;7.90;95.10;;;;;;4942702;29;20290;-80
2021/11/16 11:32:12;;;;;;;28.48;16.30;;;8.00;94.40;;;;;;4942721;29;20217;-80
2021/11/16 11:34:43;;;;;;;35.80;17.63;;;8.00;93.90;;;;;;4943302;29;20210;-79
2021/11/16 11:37:17;;;;;;;34.83;17.95;;;8.00;93.60;;;;;;4944034;29;20194;-80
2021/11/16 11:39:45;;;;;;;31.05;17.30;;;8.00;92.70;;;;;;4943948;29;20226;-80
2021/11/16 11:42:15;;;;;;;33.53;18.15;;;8.00;92.80;;;;;;4949001;29;20253;-80
2021/11/16 11:44:55;;;;;;;32.97;16.85;;;8.10;92.90;;;;;;4949222;29;20246;-80
2021/11/16 11:47:27;;;;;;;34.85;18.35;;;8.10;93.40;;;;;;4944834;29;20578;-79
2021/11/16 11:49:57;;;;;;;33.15;19.17;;;8.10;93.10;;;;;;4950491;29;20244;-79
2021/11/16 11:52:26;;;;;;;32.60;19.30;;;8.20;93.60;;;;;;4947702;29;20301;-78
2021/11/16 11:54:53;;;;;;;32.72;17.67;;;8.20;93.70;;;;;;4948004;29;20217;-80
2021/11/16 11:57:20;;;;;;;39.75;20.15;;;8.20;93.50;;;;;;4947963;29;20283;-79
2021/11/16 11:59:47;;;;;;;31.25;18.40;;;8.20;93.60;;;;;;4949450;29;20231;-81
2021/11/16 12:02:17;;;;;;;31.85;17.15;;;8.20;93.50;;;;;;4953497;29;20234;-80
2021/11/16 12:04:45;;;;;;;29.65;18.17;;;8.30;93.50;;;;;;4954187;29;20214;-79
2021/11/16 12:07:12;;;;;;;35.15;19.80;;;8.30;93.50;;;;;;4952679;29;20215;-80
2021/11/16 12:09:43;;;;;;;35.33;19.27;;;8.20;92.80;;;;;;4955439;29;20589;-80
2021/11/16 12:12:10;;;;;;;29.15;17.77;;;8.20;92.80;;;;;;4951025;29;20191;-78
2021/11/16 12:14:45;;;;;;;32.55;17.20;;;8.20;92.40;;;;;;4954211;29;20599;-78
2021/11/16 12:17:18;;;;;;;30.95;17.60;;;8.20;91.80;;;;;;4957572;29;20219;-79
2021/11/16 12:19:48;;;;;;;30.42;17.33;;;8.10;91.30;;;;;;4953423;29;20214;-79
2021/11/16 12:22:20;;;;;;;32.70;17.77;;;8.20;91.80;;;;;;4951813;29;20233;-79
2021/11/16 12:24:48;;;;;;;30.10;18.45;;;8.20;91.60;;;;;;4946667;29;20674;-80
2021/11/16 12:27:17;;;;;;;33.08;17.98;;;8.20;91.10;;;;;;4948055;29;20230;-80
2021/11/16 12:29:46;;;;;;;29.80;18.70;;;8.20;91.10;;;;;;4943801;29;20285;-80
2021/11/16 12:32:22;;;;;;;32.03;17.65;;;8.10;90.80;;;;;;4945570;29;20667;-78
2021/11/16 12:34:53;;;;;;;34.00;17.88;;;8.10;91.00;;;;;;4949456;29;20214;-78
2021/11/16 12:37:38;;;;;;;34.15;19.73;;;8.00;91.60;;;;;;4947981;29;20199;-79
2021/11/16 12:40:10;;;;;;;33.85;19.40;;;8.00;92.70;;;;;;4944510;29;20258;-79
2021/11/16 12:42:37;;;;;;;31.27;17.83;;;8.00;93.40;;;;;;4946131;29;20230;-79
2021/11/16 12:45:08;;;;;;;34.03;18.90;;;8.00;93.90;;;;;;4945898;29;20622;-78
2021/11/16 12:47:55;;;;;;;34.25;17.83;;;8.00;94.40;;;;;;4944424;29;20210;-79
2021/11/16 12:50:23;;;;;;;32.85;17.75;;;8.00;94.40;;;;;;4944945;29;20666;-81
2021/11/16 12:52:52;;;;;;;37.28;19.02;;;7.90;94.50;;;;;;4944756;29;20210;-79
2021/11/16 12:55:24;;;;;;;31.75;18.30;;;7.90;94.30;;;;;;4953300;29;20675;-79